createdAt,value
2019-01-25T00:01:51.029Z,90.10
2019-01-25T00:04:20.588Z,90.20
2019-01-25T00:06:50.203Z,90.10
2019-01-25T00:09:19.870Z,90.20
2019-01-25T00:11:49.445Z,90.40
2019-01-25T00:14:19.045Z,90.70
2019-01-25T00:16:48.660Z,90.50
2019-01-25T00:19:18.265Z,90.80
2019-01-25T00:21:47.962Z,90.90
2019-01-25T00:24:17.559Z,91.30
2019-01-25T00:26:47.266Z,91.40
2019-01-25T00:29:16.928Z,91.80
2019-01-25T00:31:46.545Z,91.80
2019-01-25T00:34:16.200Z,92.00
2019-01-25T00:36:45.840Z,92.70
2019-01-25T00:39:15.535Z,93.00
2019-01-25T00:41:45.136Z,93.90
2019-01-25T00:44:15.682Z,93.90
2019-01-25T00:46:45.375Z,94.40
2019-01-25T00:49:14.996Z,95.10
2019-01-25T00:51:44.595Z,95.30
2019-01-25T00:54:14.262Z,95.40
2019-01-25T00:56:43.865Z,95.70
2019-01-25T00:59:13.480Z,96.30
2019-01-25T01:01:43.093Z,95.90
2019-01-25T01:04:12.719Z,96.30
2019-01-25T01:06:42.433Z,96.70
2019-01-25T01:09:12.106Z,96.30
2019-01-25T01:11:41.748Z,96.10
2019-01-25T01:14:11.412Z,96.60
2019-01-25T01:16:41.081Z,96.70
2019-01-25T01:19:10.648Z,96.80
2019-01-25T01:21:40.309Z,97.00
2019-01-25T01:24:09.939Z,97.10
2019-01-25T01:26:39.485Z,96.80
2019-01-25T01:29:09.168Z,97.30
2019-01-25T01:31:38.921Z,96.70
2019-01-25T01:34:08.617Z,96.60
2019-01-25T01:36:38.366Z,96.20
2019-01-25T01:39:08.861Z,96.20
2019-01-25T01:41:38.450Z,96.90
2019-01-25T01:44:08.106Z,97.10
2019-01-25T01:46:37.810Z,96.60
2019-01-25T01:49:07.406Z,96.50
2019-01-25T01:51:37.089Z,97.00
2019-01-25T01:54:06.797Z,97.30
2019-01-25T01:56:36.423Z,97.60
2019-01-25T01:59:06.120Z,97.40
2019-01-25T02:01:35.718Z,97.30
2019-01-25T02:04:05.537Z,97.00
2019-01-25T02:06:35.203Z,96.80
2019-01-25T02:09:06.890Z,97.00
2019-01-25T02:11:36.526Z,96.90
2019-01-25T02:14:07.142Z,96.90
2019-01-25T02:16:36.817Z,96.90
2019-01-25T02:19:06.652Z,96.70
2019-01-25T02:21:36.265Z,96.60
2019-01-25T02:24:06.269Z,96.60
2019-01-25T02:26:35.862Z,97.00
2019-01-25T02:29:05.821Z,96.70
2019-01-25T02:31:35.478Z,96.10
2019-01-25T02:34:05.128Z,96.00
2019-01-25T02:36:34.705Z,96.10
2019-01-25T02:39:05.769Z,96.10
2019-01-25T02:41:35.419Z,96.30
2019-01-25T02:44:05.777Z,96.30
2019-01-25T02:46:35.363Z,96.10
2019-01-25T02:49:04.939Z,96.40
2019-01-25T02:51:34.583Z,96.50
2019-01-25T02:54:04.359Z,96.50
2019-01-25T02:56:33.974Z,96.70
2019-01-25T02:59:03.974Z,96.40
2019-01-25T03:01:33.597Z,96.20
2019-01-25T03:04:03.188Z,96.30
2019-01-25T03:06:32.856Z,96.30
2019-01-25T03:09:02.392Z,96.00
2019-01-25T03:11:31.937Z,96.00
2019-01-25T03:14:01.533Z,95.90
2019-01-25T03:16:31.173Z,95.90
2019-01-25T03:19:00.880Z,96.10
2019-01-25T03:21:30.587Z,96.20
2019-01-25T03:24:00.238Z,96.00
2019-01-25T03:26:29.976Z,95.90
2019-01-25T03:28:59.621Z,96.00
2019-01-25T03:31:29.293Z,95.70
2019-01-25T03:33:58.943Z,95.80
2019-01-25T03:36:28.598Z,96.00
2019-01-25T03:38:58.273Z,95.50
2019-01-25T03:41:27.890Z,95.50
2019-01-25T03:43:57.595Z,95.40
2019-01-25T03:46:27.226Z,95.70
2019-01-25T03:48:56.839Z,95.90
2019-01-25T03:51:26.496Z,95.70
2019-01-25T03:53:56.087Z,95.70
2019-01-25T03:56:25.814Z,95.60
2019-01-25T03:58:55.507Z,95.90
2019-01-25T04:01:25.145Z,96.10
2019-01-25T04:03:54.831Z,95.70
2019-01-25T04:06:25.276Z,95.90
2019-01-25T04:08:54.909Z,96.10
2019-01-25T04:11:24.537Z,95.80
2019-01-25T04:13:54.223Z,95.90
2019-01-25T04:16:23.850Z,96.10
2019-01-25T04:18:53.452Z,96.10
2019-01-25T04:21:23.177Z,96.20
2019-01-25T04:23:52.788Z,96.10
2019-01-25T04:26:22.311Z,95.90
2019-01-25T04:28:51.947Z,95.60
2019-01-25T04:31:21.587Z,95.70
2019-01-25T04:33:51.220Z,95.50
2019-01-25T04:36:20.887Z,95.90
2019-01-25T04:38:50.507Z,96.00
2019-01-25T04:41:20.161Z,95.70
2019-01-25T04:43:49.830Z,95.80
2019-01-25T04:46:19.481Z,95.70
2019-01-25T04:48:49.120Z,95.50
2019-01-25T04:51:18.786Z,95.50
2019-01-25T04:53:48.368Z,95.70
2019-01-25T04:56:17.926Z,95.90
2019-01-25T04:58:47.506Z,95.80
2019-01-25T05:01:17.103Z,95.80
2019-01-25T05:03:46.863Z,95.80
2019-01-25T05:06:18.041Z,95.60
2019-01-25T05:08:47.728Z,95.90
2019-01-25T05:11:20.030Z,95.70
2019-01-25T05:13:49.918Z,95.70
2019-01-25T05:16:19.559Z,95.80
2019-01-25T05:18:49.187Z,95.90
2019-01-25T05:21:25.741Z,95.60
2019-01-25T05:23:55.349Z,95.80
2019-01-25T05:26:25.101Z,95.80
2019-01-25T05:28:54.786Z,96.20
2019-01-25T05:31:27.418Z,96.30
2019-01-25T05:33:59.280Z,96.00
2019-01-25T05:36:29.017Z,96.20
2019-01-25T05:38:58.647Z,96.50
2019-01-25T05:41:28.910Z,96.40
2019-01-25T05:43:58.631Z,96.40
2019-01-25T05:46:28.218Z,96.10
2019-01-25T05:48:57.838Z,95.90
2019-01-25T05:51:33.625Z,96.10
2019-01-25T05:54:00.381Z,95.90
2019-01-25T05:56:30.224Z,95.90
2019-01-25T05:59:00.147Z,95.90
2019-01-25T06:01:29.792Z,96.20
2019-01-25T06:03:59.453Z,96.20
2019-01-25T06:06:29.165Z,96.20
2019-01-25T06:08:59.132Z,96.10
2019-01-25T06:11:35.255Z,96.20
2019-01-25T06:14:00.454Z,96.40
2019-01-25T06:16:30.120Z,96.30
2019-01-25T06:18:59.699Z,96.20
2019-01-25T06:21:29.302Z,97.20
2019-01-25T06:23:59.005Z,91.30
2019-01-25T06:26:29.981Z,92.30
2019-01-25T06:28:59.681Z,93.20
2019-01-25T06:31:29.352Z,93.90
2019-01-25T06:34:00.709Z,94.70
2019-01-25T06:36:30.417Z,95.00
2019-01-25T06:39:00.168Z,95.20
2019-01-25T06:41:29.766Z,95.90
2019-01-25T06:43:59.373Z,95.70
2019-01-25T06:46:28.902Z,96.10
2019-01-25T06:48:58.440Z,96.30
2019-01-25T06:51:28.084Z,96.40
2019-01-25T06:53:59.881Z,96.50
2019-01-25T06:56:29.590Z,96.40
2019-01-25T06:59:10.327Z,96.70
2019-01-25T07:01:44.523Z,97.00
2019-01-25T07:04:14.139Z,96.50
2019-01-25T07:06:43.767Z,96.60
2019-01-25T07:09:13.867Z,96.50
2019-01-25T07:11:43.484Z,96.80
2019-01-25T07:14:13.368Z,96.60
2019-01-25T07:16:43.268Z,96.70
2019-01-25T07:19:15.792Z,96.80
2019-01-25T07:21:45.590Z,96.90
2019-01-25T07:24:15.314Z,96.80
2019-01-25T07:26:45.155Z,96.90
2019-01-25T07:29:14.990Z,96.30
2019-01-25T07:31:46.386Z,96.40
2019-01-25T07:34:16.262Z,96.20
2019-01-25T07:36:52.022Z,96.00
2019-01-25T07:39:26.879Z,96.00
2019-01-25T07:42:00.229Z,96.30
2019-01-25T07:44:28.103Z,96.30
2019-01-25T07:46:57.906Z,96.60
2019-01-25T07:49:27.762Z,96.70
2019-01-25T07:51:57.530Z,96.30
2019-01-25T07:54:27.331Z,95.90
2019-01-25T07:56:57.103Z,95.70
2019-01-25T07:59:26.779Z,96.10
2019-01-25T08:01:56.584Z,95.90
2019-01-25T08:04:26.271Z,96.00
2019-01-25T08:06:58.885Z,95.60
2019-01-25T08:09:28.643Z,95.60
2019-01-25T08:11:58.456Z,95.50
2019-01-25T08:14:28.365Z,95.00
2019-01-25T08:17:13.356Z,95.10
2019-01-25T08:19:43.220Z,95.10
2019-01-25T08:22:16.025Z,95.50
2019-01-25T08:24:44.856Z,95.20
2019-01-25T08:27:15.861Z,94.40
2019-01-25T08:29:45.777Z,94.90
2019-01-25T08:32:17.409Z,94.50
2019-01-25T08:34:49.040Z,94.60
2019-01-25T08:37:28.621Z,94.90
2019-01-25T08:39:58.702Z,94.70
2019-01-25T08:42:30.748Z,94.60
2019-01-25T08:45:00.651Z,94.90
2019-01-25T08:47:30.739Z,94.70
2019-01-25T08:50:00.820Z,94.90
2019-01-25T08:52:30.512Z,94.60
2019-01-25T08:55:00.352Z,95.20
2019-01-25T08:57:30.081Z,95.40
2019-01-25T09:00:01.036Z,95.60
2019-01-25T09:02:30.902Z,95.70
2019-01-25T09:05:00.551Z,95.10
2019-01-25T09:07:30.281Z,95.70
2019-01-25T09:10:00.002Z,95.00
2019-01-25T09:12:29.640Z,94.90
2019-01-25T09:14:59.342Z,95.10
2019-01-25T09:18:05.486Z,94.60
2019-01-25T09:20:38.900Z,94.30
2019-01-25T09:23:08.648Z,93.80
2019-01-25T09:25:40.910Z,94.30
2019-01-25T09:28:13.816Z,93.80
2019-01-25T09:30:49.480Z,93.80
2019-01-25T09:33:21.212Z,94.30
2019-01-25T09:35:51.009Z,94.40
2019-01-25T09:38:23.896Z,94.60
2019-01-25T09:40:53.564Z,94.50
2019-01-25T09:43:23.440Z,94.30
2019-01-25T09:45:53.142Z,94.20
2019-01-25T09:48:25.791Z,94.70
2019-01-25T09:50:58.250Z,94.70
2019-01-25T09:53:28.048Z,94.70
2019-01-25T09:56:02.345Z,94.20
2019-01-25T09:59:04.330Z,94.40
2019-01-25T10:01:33.967Z,94.50
2019-01-25T10:04:03.640Z,94.30
2019-01-25T10:06:39.223Z,94.40
2019-01-25T10:09:10.120Z,95.20
2019-01-25T10:11:39.748Z,95.50
2019-01-25T10:14:09.330Z,95.30
2019-01-25T10:16:38.930Z,94.90
2019-01-25T10:19:08.513Z,94.30
2019-01-25T10:21:38.146Z,94.30
2019-01-25T10:24:07.698Z,94.00
2019-01-25T10:26:37.322Z,94.20
2019-01-25T10:29:06.933Z,94.30
2019-01-25T10:31:36.774Z,94.20
2019-01-25T10:34:06.387Z,94.50
2019-01-25T10:36:36.032Z,94.50
2019-01-25T10:39:08.575Z,94.40
2019-01-25T10:41:38.215Z,94.70
2019-01-25T10:44:09.147Z,94.10
2019-01-25T10:46:38.742Z,94.30
2019-01-25T10:49:08.319Z,93.90
2019-01-25T10:51:37.897Z,93.80
2019-01-25T10:54:07.621Z,93.50
2019-01-25T10:56:41.814Z,93.80
2019-01-25T10:59:08.440Z,93.80
2019-01-25T11:01:38.049Z,93.20
2019-01-25T11:04:11.543Z,93.40
2019-01-25T11:06:38.874Z,93.60
2019-01-25T11:09:10.225Z,94.10
2019-01-25T11:11:39.959Z,94.20
2019-01-25T11:14:09.582Z,93.60
2019-01-25T11:16:39.195Z,94.10
2019-01-25T11:19:08.765Z,94.10
2019-01-25T11:21:38.378Z,94.10
2019-01-25T11:24:08.060Z,93.80
2019-01-25T11:26:37.659Z,93.40
2019-01-25T11:29:07.574Z,93.20
2019-01-25T11:31:37.097Z,93.50
2019-01-25T11:34:07.700Z,93.70
2019-01-25T11:36:37.308Z,93.90
2019-01-25T11:39:09.729Z,93.60
2019-01-25T11:41:39.356Z,93.10
2019-01-25T11:44:08.937Z,92.90
2019-01-25T11:46:38.454Z,92.90
2019-01-25T11:49:08.165Z,92.90
2019-01-25T11:51:37.775Z,93.30
2019-01-25T11:54:07.327Z,93.60
2019-01-25T11:56:36.947Z,93.70
2019-01-25T11:59:06.591Z,93.20
2019-01-25T12:01:36.414Z,93.40
2019-01-25T12:04:06.582Z,93.60
2019-01-25T12:06:36.250Z,93.40
2019-01-25T12:09:10.835Z,93.00
2019-01-25T12:11:40.470Z,92.80
2019-01-25T12:14:10.135Z,92.20
2019-01-25T12:16:39.805Z,93.10
2019-01-25T12:19:09.461Z,92.90
2019-01-25T12:21:39.119Z,92.90
2019-01-25T12:24:10.142Z,92.90
2019-01-25T12:26:39.858Z,92.50
2019-01-25T12:29:09.780Z,92.50
2019-01-25T12:31:39.349Z,92.40
2019-01-25T12:34:12.324Z,93.00
2019-01-25T12:36:42.055Z,92.90
2019-01-25T12:39:11.896Z,93.40
2019-01-25T12:41:41.542Z,93.20
2019-01-25T12:44:11.219Z,92.70
2019-01-25T12:46:40.895Z,92.50
2019-01-25T12:49:10.466Z,92.80
2019-01-25T12:51:52.344Z,92.90
2019-01-25T12:54:21.951Z,92.70
2019-01-25T12:56:51.468Z,93.20
2019-01-25T12:59:21.038Z,93.10
2019-01-25T13:01:51.296Z,93.00
2019-01-25T13:04:35.386Z,92.70
2019-01-25T13:06:52.563Z,93.10
2019-01-25T13:09:23.515Z,93.20
2019-01-25T13:11:53.176Z,93.30
2019-01-25T13:14:22.792Z,93.30
2019-01-25T13:16:52.364Z,93.50
2019-01-25T13:19:22.050Z,93.70
2019-01-25T13:21:51.631Z,93.80
2019-01-25T13:24:21.270Z,94.10
2019-01-25T13:26:50.938Z,93.90
2019-01-25T13:29:26.049Z,93.90
2019-01-25T13:31:51.805Z,93.70
2019-01-25T13:34:21.517Z,93.80
2019-01-25T13:36:57.156Z,94.10
2019-01-25T13:39:30.106Z,93.60
2019-01-25T13:41:59.647Z,93.40
2019-01-25T13:44:31.801Z,93.20
2019-01-25T13:47:01.342Z,93.10
2019-01-25T13:49:30.904Z,93.10
2019-01-25T13:52:00.478Z,92.90
2019-01-25T13:54:30.067Z,93.20
2019-01-25T13:56:59.588Z,93.10
2019-01-25T13:59:29.193Z,92.50
2019-01-25T14:01:58.756Z,93.00
2019-01-25T14:04:28.309Z,92.70
2019-01-25T14:06:57.880Z,92.90
2019-01-25T14:09:27.590Z,92.80
2019-01-25T14:11:57.172Z,92.60
2019-01-25T14:14:26.728Z,93.10
2019-01-25T14:16:56.343Z,93.30
2019-01-25T14:19:25.910Z,93.20
2019-01-25T14:21:55.561Z,93.20
2019-01-25T14:24:25.209Z,93.10
2019-01-25T14:26:54.778Z,93.00
2019-01-25T14:29:29.272Z,93.20
2019-01-25T14:31:56.886Z,92.60
2019-01-25T14:34:26.590Z,92.50
2019-01-25T14:36:56.316Z,92.70
2019-01-25T14:39:28.770Z,93.10
2019-01-25T14:41:58.345Z,92.90
2019-01-25T14:44:31.098Z,92.60
2019-01-25T14:47:05.299Z,92.30
2019-01-25T14:49:35.062Z,92.90
2019-01-25T14:52:04.886Z,92.50
2019-01-25T14:54:35.043Z,92.90
2019-01-25T14:57:07.875Z,92.60
2019-01-25T14:59:40.220Z,92.80
2019-01-25T15:02:47.871Z,93.10
2019-01-25T15:05:18.952Z,93.10
2019-01-25T15:07:48.547Z,93.00
2019-01-25T15:10:20.498Z,93.10
2019-01-25T15:12:51.651Z,97.50
2019-01-25T15:15:21.445Z,82.60
2019-01-25T15:18:01.183Z,79.20
2019-01-25T15:20:31.095Z,82.70
2019-01-25T15:23:00.754Z,87.90
2019-01-25T15:25:32.708Z,90.10
2019-01-25T15:28:10.144Z,90.80
2019-01-25T15:30:39.770Z,91.90
2019-01-25T15:33:09.455Z,92.10
2019-01-25T15:35:40.349Z,92.50
2019-01-25T15:38:10.048Z,92.70
2019-01-25T15:40:40.029Z,92.90
2019-01-25T15:43:09.629Z,93.10
2019-01-25T15:45:39.266Z,93.10
2019-01-25T15:48:09.084Z,93.50
2019-01-25T15:50:38.766Z,93.50
2019-01-25T15:53:08.863Z,93.60
2019-01-25T15:55:38.626Z,93.80
2019-01-25T15:58:08.242Z,94.20
2019-01-25T16:00:38.183Z,94.40
2019-01-25T16:03:32.516Z,94.20
2019-01-25T16:06:02.147Z,94.10
2019-01-25T16:08:31.764Z,94.10
2019-01-25T16:11:01.290Z,94.40
2019-01-25T16:13:32.922Z,94.20
2019-01-25T16:16:02.482Z,94.00
2019-01-25T16:18:33.410Z,93.50
2019-01-25T16:21:02.971Z,93.70
2019-01-25T16:23:35.714Z,93.70
2019-01-25T16:26:07.608Z,93.70
2019-01-25T16:28:37.425Z,93.80
2019-01-25T16:31:07.003Z,93.90
2019-01-25T16:33:36.670Z,94.10
2019-01-25T16:36:06.278Z,93.90
2019-01-25T16:38:35.870Z,94.30
2019-01-25T16:41:06.120Z,94.30
2019-01-25T16:43:35.703Z,94.30
2019-01-25T16:46:05.495Z,94.00
2019-01-25T16:48:36.481Z,93.90
2019-01-25T16:51:07.839Z,94.30
2019-01-25T16:53:37.402Z,94.20
2019-01-25T16:56:07.024Z,94.10
2019-01-25T16:58:36.681Z,94.10
2019-01-25T17:01:06.733Z,93.80
2019-01-25T17:03:36.281Z,93.50
2019-01-25T17:06:06.003Z,93.40
2019-01-25T17:08:35.585Z,93.50
2019-01-25T17:11:05.834Z,93.30
2019-01-25T17:13:35.572Z,93.40
2019-01-25T17:16:05.786Z,93.60
2019-01-25T17:18:40.290Z,93.50
2019-01-25T17:21:12.428Z,93.60
2019-01-25T17:23:42.115Z,93.70
2019-01-25T17:26:11.754Z,93.70
2019-01-25T17:28:41.631Z,93.80
2019-01-25T17:31:11.219Z,93.90
2019-01-25T17:33:42.407Z,93.60
2019-01-25T17:36:12.122Z,93.30
2019-01-25T17:38:42.882Z,93.40
2019-01-25T17:41:14.828Z,93.50
2019-01-25T17:43:46.766Z,93.50
2019-01-25T17:46:15.640Z,93.70
2019-01-25T17:48:45.250Z,93.60
2019-01-25T17:51:14.982Z,93.30
2019-01-25T17:53:44.604Z,93.10
2019-01-25T17:56:14.407Z,93.00
2019-01-25T17:58:44.267Z,92.80
2019-01-25T18:01:14.127Z,92.70
2019-01-25T18:03:44.236Z,92.80
2019-01-25T18:06:17.863Z,93.30
2019-01-25T18:08:47.537Z,93.40
2019-01-25T18:11:17.150Z,93.70
2019-01-25T18:13:46.882Z,93.50
2019-01-25T18:16:16.515Z,93.20
2019-01-25T18:18:48.195Z,93.30
2019-01-25T18:21:17.806Z,93.10
2019-01-25T18:23:47.401Z,93.00
2019-01-25T18:26:21.081Z,93.10
2019-01-25T18:29:00.245Z,93.40
2019-01-25T18:31:31.211Z,93.10
2019-01-25T18:34:00.919Z,93.10
2019-01-25T18:36:30.727Z,92.60
2019-01-25T18:39:00.460Z,92.80
2019-01-25T18:41:30.241Z,92.60
2019-01-25T18:43:59.887Z,92.80
2019-01-25T18:46:29.571Z,92.90
2019-01-25T18:48:59.201Z,92.90
2019-01-25T18:51:28.887Z,93.00
2019-01-25T18:53:58.574Z,93.00
2019-01-25T18:56:28.447Z,93.00
2019-01-25T18:58:58.129Z,92.70
2019-01-25T19:01:27.763Z,92.90
2019-01-25T19:04:03.407Z,92.60
2019-01-25T19:06:33.062Z,92.70
2019-01-25T19:09:02.720Z,92.10
2019-01-25T19:11:32.362Z,91.60
2019-01-25T19:14:02.110Z,90.70
2019-01-25T19:16:31.735Z,90.80
2019-01-25T19:19:01.327Z,91.00
2019-01-25T19:21:31.127Z,90.90
2019-01-25T19:24:00.848Z,91.20
2019-01-25T19:26:36.873Z,91.50
2019-01-25T19:29:25.600Z,91.30
2019-01-25T19:32:06.832Z,91.80
2019-01-25T19:34:35.284Z,91.70
2019-01-25T19:37:13.298Z,92.30
2019-01-25T19:39:49.276Z,91.90
2019-01-25T19:42:26.008Z,92.20
2019-01-25T19:44:59.889Z,92.40
2019-01-25T19:47:39.144Z,92.80
2019-01-25T19:50:10.920Z,92.60
2019-01-25T19:52:41.232Z,92.60
2019-01-25T19:55:17.250Z,92.80
2019-01-25T19:57:47.331Z,92.80
2019-01-25T20:00:22.943Z,92.60
2019-01-25T20:02:52.911Z,92.80
2019-01-25T20:05:22.719Z,92.90
2019-01-25T20:07:55.862Z,93.00
2019-01-25T20:10:25.726Z,92.80
2019-01-25T20:12:55.366Z,93.10
2019-01-25T20:15:25.082Z,92.40
2019-01-25T20:17:54.680Z,92.70
2019-01-25T20:20:29.582Z,92.30
2019-01-25T20:22:59.281Z,92.10
2019-01-25T20:25:28.881Z,91.90
2019-01-25T20:27:58.515Z,91.50
2019-01-25T20:30:29.941Z,92.50
2019-01-25T20:33:00.881Z,92.30
2019-01-25T20:35:35.455Z,92.40
2019-01-25T20:38:05.403Z,92.60
2019-01-25T20:40:35.149Z,92.70
2019-01-25T20:43:05.117Z,92.40
2019-01-25T20:45:36.450Z,92.50
2019-01-25T20:48:06.835Z,92.30
2019-01-25T20:50:36.637Z,92.40
2019-01-25T20:53:07.171Z,92.00
2019-01-25T20:55:36.873Z,91.70
2019-01-25T20:58:07.148Z,91.40
2019-01-25T21:00:38.059Z,91.50
2019-01-25T21:03:12.080Z,91.60
2019-01-25T21:05:41.815Z,90.80
2019-01-25T21:08:11.654Z,91.40
2019-01-25T21:10:41.134Z,91.20
2019-01-25T21:13:10.873Z,91.70
2019-01-25T21:15:40.721Z,91.20
2019-01-25T21:18:10.374Z,91.30
2019-01-25T21:20:42.581Z,91.20
2019-01-25T21:23:12.273Z,91.00
2019-01-25T21:25:42.083Z,91.00
2019-01-25T21:28:12.039Z,91.00
2019-01-25T21:30:41.745Z,90.70
2019-01-25T21:33:11.339Z,91.00
2019-01-25T21:35:40.951Z,90.70
2019-01-25T21:38:10.567Z,90.30
2019-01-25T21:40:45.376Z,90.10
2019-01-25T21:43:14.969Z,90.60
2019-01-25T21:45:44.570Z,90.20
2019-01-25T21:48:18.365Z,90.40
2019-01-25T21:50:48.558Z,90.20
2019-01-25T21:53:18.218Z,90.70
2019-01-25T21:55:47.855Z,90.60
2019-01-25T21:58:17.655Z,90.90
2019-01-25T22:00:47.217Z,90.70
2019-01-25T22:03:16.859Z,90.10
2019-01-25T22:05:50.267Z,90.00
2019-01-25T22:08:19.907Z,90.30
2019-01-25T22:10:50.845Z,90.60
2019-01-25T22:13:20.479Z,90.80
2019-01-25T22:15:51.107Z,90.50
2019-01-25T22:18:21.002Z,91.10
2019-01-25T22:20:50.518Z,91.10
2019-01-25T22:23:20.171Z,90.80
2019-01-25T22:25:49.944Z,90.50
2019-01-25T22:28:19.479Z,90.50
2019-01-25T22:30:49.171Z,90.90
2019-01-25T22:33:18.789Z,90.80
2019-01-25T22:35:48.297Z,90.60
2019-01-25T22:38:17.838Z,90.90
2019-01-25T22:40:47.454Z,90.60
2019-01-25T22:43:16.983Z,90.10
2019-01-25T22:45:46.617Z,90.30
2019-01-25T22:48:16.242Z,90.20
2019-01-25T22:50:45.829Z,90.30
2019-01-25T22:53:15.477Z,90.60
2019-01-25T22:55:45.097Z,90.50
2019-01-25T22:58:14.633Z,90.70
2019-01-25T23:01:08.122Z,90.60
2019-01-25T23:03:45.101Z,90.50
2019-01-25T23:07:04.910Z,90.70
2019-01-25T23:09:37.225Z,90.40
2019-01-25T23:12:07.078Z,90.70
2019-01-25T23:14:36.681Z,90.70
2019-01-25T23:17:06.783Z,90.90
2019-01-25T23:19:36.309Z,91.30
2019-01-25T23:22:06.334Z,90.80
2019-01-25T23:24:35.910Z,91.20
2019-01-25T23:27:05.726Z,91.20
2019-01-25T23:29:35.346Z,91.10
2019-01-25T23:32:05.052Z,91.40
2019-01-25T23:34:36.006Z,91.10
2019-01-25T23:37:05.915Z,91.20
2019-01-25T23:40:37.969Z,91.60
2019-01-25T23:43:07.520Z,91.60
2019-01-25T23:45:38.180Z,91.90
2019-01-25T23:48:07.839Z,91.90
2019-01-25T23:50:37.425Z,91.70
2019-01-25T23:53:07.345Z,91.60
2019-01-25T23:55:36.979Z,92.00
2019-01-25T23:58:09.954Z,91.90
